createdAt,value
2022-12-08T00:01:16.081Z,81.88
2022-12-08T00:02:37.331Z,81.73
2022-12-08T00:04:04.377Z,81.61
2022-12-08T00:05:43.802Z,81.46
2022-12-08T00:07:23.242Z,81.30
2022-12-08T00:09:02.674Z,81.37
2022-12-08T00:10:48.013Z,80.62
2022-12-08T00:12:16.544Z,80.45
2022-12-08T00:13:37.678Z,80.39
2022-12-08T00:14:58.924Z,79.83
2022-12-08T00:16:20.140Z,79.57
2022-12-08T00:17:41.246Z,79.75
2022-12-08T00:19:02.381Z,79.56
2022-12-08T00:20:23.789Z,79.33
2022-12-08T00:21:44.996Z,79.07
2022-12-08T00:23:05.910Z,78.97
2022-12-08T00:24:31.942Z,79.05
2022-12-08T00:25:53.166Z,78.95
2022-12-08T00:27:16.244Z,79.57
2022-12-08T00:28:37.602Z,79.40
2022-12-08T00:29:58.562Z,79.66
2022-12-08T00:31:19.996Z,80.23
2022-12-08T00:32:41.257Z,79.95
2022-12-08T00:34:02.506Z,79.86
2022-12-08T00:35:23.362Z,79.99
2022-12-08T00:36:45.038Z,79.71
2022-12-08T00:38:06.094Z,79.73
2022-12-08T00:39:27.336Z,79.71
2022-12-08T00:40:48.657Z,80.00
2022-12-08T00:42:12.556Z,79.84
2022-12-08T00:43:33.537Z,79.50
2022-12-08T00:44:54.731Z,79.62
2022-12-08T00:46:15.872Z,79.68
2022-12-08T00:47:36.984Z,79.42
2022-12-08T00:48:58.167Z,79.91
2022-12-08T00:50:19.342Z,79.98
2022-12-08T00:51:40.606Z,79.88
2022-12-08T00:53:01.856Z,79.81
2022-12-08T00:54:23.395Z,80.09
2022-12-08T00:55:44.577Z,79.81
2022-12-08T00:57:05.719Z,79.76
2022-12-08T00:58:27.110Z,80.14
2022-12-08T00:59:47.982Z,80.21
2022-12-08T01:01:13.504Z,80.12
2022-12-08T01:02:34.786Z,80.35
2022-12-08T01:03:55.705Z,79.88
2022-12-08T01:05:16.855Z,79.81
2022-12-08T01:06:39.078Z,79.80
2022-12-08T01:08:00.227Z,79.61
2022-12-08T01:09:21.763Z,79.70
2022-12-08T01:10:42.709Z,79.66
2022-12-08T01:12:04.183Z,80.22
2022-12-08T01:13:25.399Z,80.45
2022-12-08T01:14:46.785Z,80.75
2022-12-08T01:16:08.507Z,81.13
2022-12-08T01:17:29.674Z,80.89
2022-12-08T01:18:51.360Z,80.93
2022-12-08T01:20:12.489Z,80.93
2022-12-08T01:21:33.543Z,80.99
2022-12-08T01:22:54.685Z,81.12
2022-12-08T01:24:18.360Z,81.22
2022-12-08T01:25:39.537Z,81.20
2022-12-08T01:27:00.429Z,81.43
2022-12-08T01:28:21.743Z,81.35
2022-12-08T01:29:42.731Z,81.32
2022-12-08T01:31:04.215Z,81.42
2022-12-08T01:32:25.135Z,81.43
2022-12-08T01:33:47.130Z,81.21
2022-12-08T01:35:08.457Z,81.67
2022-12-08T01:36:32.298Z,82.15
2022-12-08T01:37:52.919Z,82.45
2022-12-08T01:39:16.984Z,82.61
2022-12-08T01:40:37.806Z,82.87
2022-12-08T01:41:59.061Z,83.55
2022-12-08T01:43:20.940Z,83.60
2022-12-08T01:44:42.292Z,83.32
2022-12-08T01:46:03.778Z,83.17
2022-12-08T01:47:29.324Z,83.56
2022-12-08T01:48:54.519Z,83.79
2022-12-08T01:50:18.222Z,84.06
2022-12-08T01:51:47.993Z,83.77
2022-12-08T01:53:11.010Z,83.65
2022-12-08T01:54:42.111Z,83.81
2022-12-08T01:56:10.740Z,83.61
2022-12-08T01:57:41.018Z,83.77
2022-12-08T01:59:03.368Z,83.79
2022-12-08T02:00:24.858Z,83.97
2022-12-08T02:01:45.860Z,83.89
2022-12-08T02:03:12.411Z,83.98
2022-12-08T02:04:33.437Z,83.98
2022-12-08T02:05:55.074Z,84.23
2022-12-08T02:07:16.733Z,83.99
2022-12-08T02:08:40.545Z,83.67
2022-12-08T02:10:03.405Z,83.28
2022-12-08T02:11:24.434Z,83.51
2022-12-08T02:12:47.309Z,83.43
2022-12-08T02:14:10.347Z,83.41
2022-12-08T02:15:56.246Z,83.47
2022-12-08T02:17:40.375Z,83.40
2022-12-08T02:21:14.170Z,83.12
2022-12-08T02:22:47.292Z,83.42
2022-12-08T02:24:30.749Z,83.23
2022-12-08T02:26:33.587Z,83.31
2022-12-08T02:28:37.257Z,83.33
2022-12-08T02:30:07.740Z,83.35
2022-12-08T02:31:58.615Z,83.66
2022-12-08T02:33:47.146Z,83.29
2022-12-08T02:35:39.092Z,83.87
2022-12-08T02:37:15.240Z,83.35
2022-12-08T02:38:50.388Z,84.02
2022-12-08T02:40:14.486Z,83.99
2022-12-08T02:41:59.506Z,84.36
2022-12-08T02:43:35.307Z,83.94
2022-12-08T02:45:24.780Z,84.64
2022-12-08T02:46:58.194Z,84.81
2022-12-08T02:48:19.536Z,84.79
2022-12-08T02:49:40.740Z,85.64
2022-12-08T02:51:02.503Z,85.05
2022-12-08T02:52:23.243Z,84.89
2022-12-08T02:53:45.067Z,84.93
2022-12-08T02:55:14.312Z,85.01
2022-12-08T02:57:02.597Z,84.68
2022-12-08T02:58:29.615Z,84.56
2022-12-08T03:00:09.212Z,84.42
2022-12-08T03:01:43.631Z,84.29
2022-12-08T03:03:13.707Z,84.54
2022-12-08T03:04:37.414Z,84.54
2022-12-08T03:06:11.223Z,84.76
2022-12-08T03:07:40.686Z,84.80
2022-12-08T03:09:14.362Z,84.74
2022-12-08T03:10:46.500Z,84.33
2022-12-08T03:12:25.641Z,84.61
2022-12-08T03:13:53.201Z,84.29
2022-12-08T03:15:20.165Z,84.26
2022-12-08T03:16:44.117Z,84.09
2022-12-08T03:18:09.571Z,83.74
2022-12-08T03:19:38.175Z,83.94
2022-12-08T03:21:00.130Z,83.60
2022-12-08T03:22:23.687Z,84.02
2022-12-08T03:23:47.134Z,84.11
2022-12-08T03:25:12.716Z,84.19
2022-12-08T03:26:53.069Z,84.45
2022-12-08T03:28:14.174Z,84.25
2022-12-08T03:29:35.278Z,84.25
2022-12-08T03:31:00.140Z,83.89
2022-12-08T03:33:00.353Z,83.66
2022-12-08T03:34:23.987Z,83.56
2022-12-08T03:35:46.401Z,83.44
2022-12-08T03:37:07.714Z,83.15
2022-12-08T03:38:38.518Z,83.21
2022-12-08T03:39:59.488Z,82.94
2022-12-08T03:41:22.237Z,82.94
2022-12-08T03:42:43.437Z,82.70
2022-12-08T03:44:04.513Z,82.46
2022-12-08T03:45:26.156Z,82.35
2022-12-08T03:46:47.319Z,82.12
2022-12-08T03:48:08.630Z,82.12
2022-12-08T03:49:29.494Z,82.32
2022-12-08T03:50:50.759Z,82.04
2022-12-08T03:52:12.382Z,82.20
2022-12-08T03:53:33.843Z,81.99
2022-12-08T03:54:54.773Z,82.22
2022-12-08T03:56:34.309Z,82.20
2022-12-08T03:57:55.115Z,82.18
2022-12-08T03:59:16.362Z,82.21
2022-12-08T04:00:37.253Z,82.36
2022-12-08T04:01:58.648Z,82.41
2022-12-08T04:03:20.022Z,82.15
2022-12-08T04:04:40.923Z,81.95
2022-12-08T04:06:02.030Z,82.33
2022-12-08T04:07:23.271Z,81.55
2022-12-08T04:08:44.758Z,81.40
2022-12-08T04:10:06.497Z,81.81
2022-12-08T04:11:27.749Z,81.48
2022-12-08T04:12:48.877Z,81.66
2022-12-08T04:14:10.129Z,82.16
2022-12-08T04:15:31.173Z,81.50
2022-12-08T04:16:52.490Z,81.77
2022-12-08T04:18:14.250Z,81.75
2022-12-08T04:19:35.078Z,81.68
2022-12-08T04:20:56.293Z,81.93
2022-12-08T04:22:17.469Z,81.88
2022-12-08T04:23:38.990Z,81.74
2022-12-08T04:24:59.902Z,81.58
2022-12-08T04:26:21.045Z,81.49
2022-12-08T04:27:42.045Z,81.26
2022-12-08T04:29:03.296Z,81.50
2022-12-08T04:30:24.550Z,81.18
2022-12-08T04:31:46.118Z,81.06
2022-12-08T04:33:07.370Z,81.03
2022-12-08T04:34:28.693Z,81.05
2022-12-08T04:35:49.989Z,81.25
2022-12-08T04:37:11.282Z,81.54
2022-12-08T04:38:33.617Z,81.50
2022-12-08T04:39:54.753Z,81.54
2022-12-08T04:41:15.694Z,81.76
2022-12-08T04:42:37.398Z,81.88
2022-12-08T04:43:58.406Z,81.84
2022-12-08T04:45:19.416Z,82.18
2022-12-08T04:46:43.642Z,82.18
2022-12-08T04:48:05.242Z,82.40
2022-12-08T04:49:26.073Z,82.41
2022-12-08T04:50:47.199Z,82.23
2022-12-08T04:52:08.337Z,82.04
2022-12-08T04:53:29.675Z,82.15
2022-12-08T04:54:50.766Z,82.16
2022-12-08T04:56:13.552Z,82.13
2022-12-08T04:57:34.462Z,82.45
2022-12-08T04:58:55.662Z,82.25
2022-12-08T05:00:17.967Z,81.71
2022-12-08T05:01:38.953Z,82.27
2022-12-08T05:03:00.026Z,82.13
2022-12-08T05:04:21.061Z,82.19
2022-12-08T05:05:42.717Z,82.21
2022-12-08T05:07:04.021Z,82.04
2022-12-08T05:08:25.120Z,82.18
2022-12-08T05:09:46.166Z,81.80
2022-12-08T05:11:09.860Z,82.05
2022-12-08T05:12:31.076Z,81.91
2022-12-08T05:13:52.361Z,81.91
2022-12-08T05:15:13.621Z,81.79
2022-12-08T05:16:34.760Z,81.63
2022-12-08T05:17:56.177Z,81.80
2022-12-08T05:19:18.070Z,82.05
2022-12-08T05:20:39.251Z,82.33
2022-12-08T05:22:00.263Z,81.99
2022-12-08T05:23:21.387Z,82.34
2022-12-08T05:24:47.422Z,82.34
2022-12-08T05:26:08.880Z,82.55
2022-12-08T05:27:30.016Z,82.46
2022-12-08T05:28:51.159Z,82.24
2022-12-08T05:30:12.588Z,82.39
2022-12-08T05:31:33.715Z,82.06
2022-12-08T05:32:54.875Z,81.71
2022-12-08T05:34:15.915Z,81.85
2022-12-08T05:35:36.938Z,81.96
2022-12-08T05:36:58.095Z,81.85
2022-12-08T05:38:19.389Z,82.04
2022-12-08T05:39:40.829Z,81.65
2022-12-08T05:41:01.908Z,81.69
2022-12-08T05:42:24.931Z,81.32
2022-12-08T05:43:47.135Z,81.38
2022-12-08T05:45:08.980Z,81.44
2022-12-08T05:46:29.809Z,81.49
2022-12-08T05:47:53.493Z,81.70
2022-12-08T05:49:14.843Z,81.75
2022-12-08T05:50:36.118Z,81.67
2022-12-08T05:51:58.979Z,81.88
2022-12-08T05:53:20.613Z,81.89
2022-12-08T05:54:41.835Z,82.07
2022-12-08T05:56:03.336Z,82.54
2022-12-08T05:57:24.438Z,83.08
2022-12-08T05:58:45.278Z,84.10
2022-12-08T06:00:07.223Z,83.89
2022-12-08T06:01:32.968Z,83.94
2022-12-08T06:02:54.197Z,84.17
2022-12-08T06:04:15.500Z,84.07
2022-12-08T06:05:36.902Z,84.15
2022-12-08T06:06:58.090Z,84.21
2022-12-08T06:08:19.262Z,83.88
2022-12-08T06:09:40.342Z,84.19
2022-12-08T06:11:02.226Z,84.30
2022-12-08T06:12:23.109Z,84.29
2022-12-08T06:13:44.332Z,84.40
2022-12-08T06:15:06.622Z,84.33
2022-12-08T06:16:28.801Z,84.20
2022-12-08T06:17:49.846Z,84.16
2022-12-08T06:19:10.955Z,84.12
2022-12-08T06:20:32.506Z,84.45
2022-12-08T06:21:53.514Z,84.67
2022-12-08T06:23:14.758Z,84.57
2022-12-08T06:24:35.855Z,84.46
2022-12-08T06:26:05.582Z,84.95
2022-12-08T06:27:26.507Z,85.36
2022-12-08T06:28:49.367Z,85.90
2022-12-08T06:30:10.793Z,85.55
2022-12-08T06:31:31.991Z,85.35
2022-12-08T06:32:52.970Z,85.22
2022-12-08T06:34:14.258Z,85.00
2022-12-08T06:35:35.505Z,85.02
2022-12-08T06:36:56.323Z,84.96
2022-12-08T06:38:17.464Z,85.26
2022-12-08T06:39:38.465Z,84.86
2022-12-08T06:40:59.841Z,84.39
2022-12-08T06:42:39.868Z,84.33
2022-12-08T06:44:00.644Z,84.71
2022-12-08T06:45:21.548Z,84.44
2022-12-08T06:46:42.565Z,84.72
2022-12-08T06:48:03.927Z,84.66
2022-12-08T06:49:25.147Z,84.45
2022-12-08T06:50:46.240Z,84.34
2022-12-08T06:52:07.404Z,84.39
2022-12-08T06:53:28.676Z,84.20
2022-12-08T06:54:50.167Z,83.90
2022-12-08T06:56:11.840Z,83.54
2022-12-08T06:57:32.932Z,83.42
2022-12-08T06:58:54.107Z,83.33
2022-12-08T07:00:15.893Z,83.18
2022-12-08T07:01:36.946Z,82.96
2022-12-08T07:02:58.594Z,83.03
2022-12-08T07:04:19.668Z,83.01
2022-12-08T07:05:41.267Z,82.92
2022-12-08T07:07:02.444Z,82.78
2022-12-08T07:08:23.737Z,82.99
2022-12-08T07:09:44.814Z,82.82
2022-12-08T07:11:10.583Z,82.71
2022-12-08T07:12:31.749Z,82.73
2022-12-08T07:13:53.030Z,82.67
2022-12-08T07:15:14.243Z,82.97
2022-12-08T07:16:35.305Z,82.78
2022-12-08T07:18:00.085Z,82.65
2022-12-08T07:19:21.500Z,82.59
2022-12-08T07:20:42.537Z,81.96
2022-12-08T07:22:03.756Z,82.24
2022-12-08T07:23:24.796Z,82.26
2022-12-08T07:24:45.727Z,82.08
2022-12-08T07:26:08.427Z,82.28
2022-12-08T07:27:29.531Z,81.94
2022-12-08T07:28:50.678Z,81.94
2022-12-08T07:30:13.106Z,81.83
2022-12-08T07:31:34.207Z,81.38
2022-12-08T07:32:55.370Z,81.49
2022-12-08T07:34:16.435Z,81.57
2022-12-08T07:35:37.414Z,81.80
2022-12-08T07:36:58.647Z,81.86
2022-12-08T07:38:20.163Z,81.63
2022-12-08T07:39:41.408Z,81.24
2022-12-08T07:41:02.637Z,81.06
2022-12-08T07:42:23.929Z,81.21
2022-12-08T07:43:45.623Z,81.21
2022-12-08T07:45:07.628Z,80.88
2022-12-08T07:46:28.607Z,80.95
2022-12-08T07:47:49.761Z,80.45
2022-12-08T07:49:10.803Z,80.52
2022-12-08T07:50:31.970Z,80.56
2022-12-08T07:51:53.260Z,81.24
2022-12-08T07:53:14.744Z,81.94
2022-12-08T07:54:36.006Z,81.07
2022-12-08T07:55:57.817Z,81.23
2022-12-08T07:57:19.036Z,81.15
2022-12-08T07:58:41.031Z,81.12
2022-12-08T08:00:02.878Z,80.83
2022-12-08T08:01:34.489Z,80.66
2022-12-08T08:02:55.424Z,80.66
2022-12-08T08:04:16.871Z,79.81
2022-12-08T08:05:38.204Z,79.73
2022-12-08T08:06:59.595Z,78.81
2022-12-08T08:08:21.068Z,78.89
2022-12-08T08:09:42.320Z,79.73
2022-12-08T08:11:15.807Z,79.59
2022-12-08T08:12:40.527Z,79.86
2022-12-08T08:14:01.771Z,80.11
2022-12-08T08:15:23.002Z,79.84
2022-12-08T08:16:47.523Z,79.45
2022-12-08T08:18:08.829Z,79.65
2022-12-08T08:19:30.247Z,78.98
2022-12-08T08:20:51.607Z,79.53
2022-12-08T08:22:12.802Z,79.00
2022-12-08T08:23:34.896Z,78.99
2022-12-08T08:24:55.884Z,78.86
2022-12-08T08:26:17.286Z,79.37
2022-12-08T08:27:38.386Z,78.73
2022-12-08T08:28:59.566Z,78.64
2022-12-08T08:30:21.384Z,78.84
2022-12-08T08:31:42.570Z,78.40
2022-12-08T08:33:03.827Z,78.80
2022-12-08T08:34:24.800Z,79.49
2022-12-08T08:35:46.034Z,78.78
2022-12-08T08:37:07.345Z,78.54
2022-12-08T08:38:29.293Z,78.95
2022-12-08T08:39:51.625Z,78.48
2022-12-08T08:41:12.696Z,78.61
2022-12-08T08:42:34.774Z,79.21
2022-12-08T08:43:55.572Z,78.70
2022-12-08T08:45:16.819Z,78.45
2022-12-08T08:46:37.964Z,77.68
2022-12-08T08:47:59.662Z,77.96
2022-12-08T08:49:20.843Z,78.57
2022-12-08T08:50:42.022Z,78.64
2022-12-08T08:52:04.671Z,77.93
2022-12-08T08:53:26.108Z,78.48
2022-12-08T08:54:47.166Z,79.23
2022-12-08T08:56:19.414Z,79.07
2022-12-08T08:57:40.604Z,79.38
2022-12-08T08:59:03.106Z,79.70
2022-12-08T09:00:24.069Z,80.25
2022-12-08T09:01:46.435Z,79.12
2022-12-08T09:03:07.725Z,78.82
2022-12-08T09:04:29.889Z,78.93
2022-12-08T09:05:51.617Z,79.00
2022-12-08T09:07:13.605Z,79.67
2022-12-08T09:08:34.720Z,79.01
2022-12-08T09:10:01.617Z,78.59
2022-12-08T09:11:23.841Z,78.98
2022-12-08T09:12:44.882Z,78.57
2022-12-08T09:14:07.967Z,78.94
2022-12-08T09:15:30.315Z,78.77
2022-12-08T09:16:52.084Z,77.98
2022-12-08T09:18:13.178Z,77.94
2022-12-08T09:19:34.654Z,78.09
2022-12-08T09:20:55.852Z,77.30
2022-12-08T09:22:16.885Z,77.11
2022-12-08T09:23:38.080Z,76.51
2022-12-08T09:24:58.923Z,76.83
2022-12-08T09:26:24.047Z,76.50
2022-12-08T09:27:44.901Z,76.29
2022-12-08T09:29:06.024Z,75.95
2022-12-08T09:30:27.137Z,76.53
2022-12-08T09:31:48.026Z,76.41
2022-12-08T09:33:09.143Z,76.52
2022-12-08T09:34:31.323Z,76.46
2022-12-08T09:35:52.458Z,76.96
2022-12-08T09:37:14.267Z,76.50
2022-12-08T09:38:35.591Z,76.59
2022-12-08T09:39:57.918Z,76.63
2022-12-08T09:41:40.631Z,76.95
2022-12-08T09:43:20.075Z,77.35
2022-12-08T09:44:57.282Z,77.27
2022-12-08T09:46:19.517Z,76.94
2022-12-08T09:47:58.011Z,77.01
2022-12-08T09:49:25.165Z,77.38
2022-12-08T09:50:57.111Z,76.92
2022-12-08T09:52:33.632Z,76.30
2022-12-08T09:54:24.247Z,77.06
2022-12-08T09:55:54.651Z,76.75
2022-12-08T09:57:19.495Z,76.08
2022-12-08T09:58:57.132Z,76.02
2022-12-08T10:00:18.338Z,76.07
2022-12-08T10:01:42.120Z,76.23
2022-12-08T10:03:03.483Z,76.10
2022-12-08T10:04:34.905Z,75.82
2022-12-08T10:06:21.819Z,75.84
2022-12-08T10:07:49.416Z,75.92
2022-12-08T10:09:21.193Z,74.84
2022-12-08T10:10:47.355Z,74.88
2022-12-08T10:12:32.078Z,74.69
2022-12-08T10:14:10.289Z,74.62
2022-12-08T10:15:31.136Z,74.57
2022-12-08T10:16:58.583Z,74.61
2022-12-08T10:18:30.849Z,74.48
2022-12-08T10:20:12.399Z,74.62
2022-12-08T10:21:33.840Z,74.59
2022-12-08T10:23:07.739Z,75.87
2022-12-08T10:24:41.171Z,76.23
2022-12-08T10:26:15.366Z,76.13
2022-12-08T10:27:37.435Z,75.87
2022-12-08T10:29:02.904Z,76.11
2022-12-08T10:30:24.279Z,75.52
2022-12-08T10:31:45.925Z,76.16
2022-12-08T10:33:15.530Z,76.62
2022-12-08T10:35:05.281Z,77.67
2022-12-08T10:36:45.002Z,77.87
2022-12-08T10:38:06.567Z,78.39
2022-12-08T10:39:34.384Z,78.85
2022-12-08T10:41:09.568Z,79.13
2022-12-08T10:42:38.211Z,78.40
2022-12-08T10:44:01.775Z,77.75
2022-12-08T10:45:23.273Z,77.75
2022-12-08T10:46:44.382Z,77.51
2022-12-08T10:48:17.104Z,78.02
2022-12-08T10:49:38.728Z,78.35
2022-12-08T10:51:00.659Z,78.80
2022-12-08T10:52:25.365Z,78.83
2022-12-08T10:53:47.239Z,79.13
2022-12-08T10:55:17.937Z,78.71
2022-12-08T10:56:39.173Z,78.65
2022-12-08T10:58:00.484Z,78.56
2022-12-08T10:59:21.721Z,78.79
2022-12-08T11:00:43.054Z,78.55
2022-12-08T11:02:09.009Z,78.88
2022-12-08T11:03:39.702Z,78.98
2022-12-08T11:05:00.692Z,78.75
2022-12-08T11:06:30.357Z,78.71
2022-12-08T11:07:53.965Z,78.82
2022-12-08T11:09:17.984Z,78.89
2022-12-08T11:10:44.974Z,78.40
2022-12-08T11:12:15.333Z,78.47
2022-12-08T11:13:41.573Z,78.87
2022-12-08T11:15:05.299Z,78.45
2022-12-08T11:16:27.583Z,78.11
2022-12-08T11:18:01.188Z,78.75
2022-12-08T11:19:27.605Z,78.82
2022-12-08T11:21:00.297Z,78.51
2022-12-08T11:22:42.615Z,78.55
2022-12-08T11:24:16.110Z,78.58
2022-12-08T11:25:37.353Z,78.85
2022-12-08T11:27:02.665Z,79.18
2022-12-08T11:28:25.070Z,79.40
2022-12-08T11:29:46.362Z,79.28
2022-12-08T11:31:33.726Z,79.72
2022-12-08T11:33:17.902Z,79.76
2022-12-08T11:34:48.030Z,79.27
2022-12-08T11:36:14.538Z,79.79
2022-12-08T11:37:41.565Z,79.94
2022-12-08T11:39:04.678Z,79.34
2022-12-08T11:40:32.777Z,79.65
2022-12-08T11:41:56.350Z,79.32
2022-12-08T11:43:28.468Z,80.01
2022-12-08T11:44:53.233Z,79.49
2022-12-08T11:46:46.703Z,79.19
2022-12-08T11:48:23.979Z,78.91
2022-12-08T11:51:13.522Z,78.92
2022-12-08T11:52:45.229Z,79.04
2022-12-08T11:54:24.146Z,78.99
2022-12-08T11:55:58.774Z,78.37
2022-12-08T11:57:23.209Z,78.36
2022-12-08T11:58:50.558Z,78.09
2022-12-08T12:00:15.181Z,78.06
2022-12-08T12:01:42.213Z,78.24
2022-12-08T12:03:32.443Z,78.34
2022-12-08T12:05:10.082Z,78.37
2022-12-08T12:06:54.574Z,78.47
2022-12-08T12:08:43.764Z,78.30
2022-12-08T12:10:23.215Z,78.11
2022-12-08T12:12:09.123Z,78.38
2022-12-08T12:13:39.348Z,78.63
2022-12-08T12:15:15.395Z,78.33
2022-12-08T12:17:06.277Z,77.52
2022-12-08T12:18:46.363Z,77.75
2022-12-08T12:20:15.294Z,77.83
2022-12-08T12:21:57.239Z,77.73
2022-12-08T12:23:36.406Z,77.18
2022-12-08T12:24:57.529Z,77.90
2022-12-08T12:26:22.556Z,77.32
2022-12-08T12:27:45.565Z,77.19
2022-12-08T12:29:26.095Z,77.53
2022-12-08T12:31:06.437Z,77.63
2022-12-08T12:32:43.123Z,77.43
2022-12-08T12:34:15.473Z,77.28
2022-12-08T12:35:43.157Z,77.93
2022-12-08T12:37:10.451Z,78.01
2022-12-08T12:38:59.193Z,78.31
2022-12-08T12:40:24.157Z,77.76
2022-12-08T12:41:52.118Z,78.42
2022-12-08T12:43:24.374Z,78.06
2022-12-08T12:44:45.412Z,78.11
2022-12-08T12:46:43.599Z,77.99
2022-12-08T12:48:04.411Z,78.26
2022-12-08T12:49:40.942Z,78.29
2022-12-08T12:51:39.876Z,78.00
2022-12-08T12:53:02.905Z,78.12
2022-12-08T12:54:25.913Z,78.56
2022-12-08T12:56:03.964Z,78.09
2022-12-08T12:57:39.854Z,77.77
2022-12-08T12:59:29.436Z,77.60
2022-12-08T13:00:50.396Z,77.76
2022-12-08T13:02:34.145Z,78.61
2022-12-08T13:04:09.777Z,79.19
2022-12-08T13:05:48.973Z,79.37
2022-12-08T13:07:21.515Z,79.86
2022-12-08T13:08:52.629Z,80.00
2022-12-08T13:10:25.948Z,80.42
2022-12-08T13:11:51.882Z,80.52
2022-12-08T13:13:12.825Z,79.91
2022-12-08T13:14:46.777Z,80.22
2022-12-08T13:16:18.575Z,80.13
2022-12-08T13:17:45.753Z,80.10
2022-12-08T13:19:16.049Z,79.96
2022-12-08T13:20:46.013Z,80.04
2022-12-08T13:22:45.060Z,79.87
2022-12-08T13:24:17.899Z,79.94
2022-12-08T13:25:44.945Z,80.54
2022-12-08T13:27:05.683Z,80.05
2022-12-08T13:28:31.285Z,80.59
2022-12-08T13:30:31.235Z,80.44
2022-12-08T13:31:54.000Z,80.51
2022-12-08T13:33:25.783Z,80.47
2022-12-08T13:34:55.490Z,81.79
2022-12-08T13:36:26.123Z,82.28
2022-12-08T13:37:54.927Z,82.54
2022-12-08T13:39:26.753Z,83.11
2022-12-08T13:41:08.797Z,83.56
2022-12-08T13:42:51.085Z,84.04
2022-12-08T13:45:18.659Z,84.62
2022-12-08T13:46:57.940Z,84.78
2022-12-08T13:48:23.377Z,84.99
2022-12-08T13:51:10.573Z,85.09
2022-12-08T13:57:27.492Z,85.75
2022-12-08T13:58:48.683Z,85.74
2022-12-08T14:00:18.399Z,85.76
2022-12-08T14:01:44.866Z,85.55
2022-12-08T14:03:05.984Z,86.40
2022-12-08T14:04:54.288Z,87.13
2022-12-08T14:06:25.019Z,86.90
2022-12-08T14:07:48.951Z,86.92
2022-12-08T14:09:27.250Z,87.40
2022-12-08T14:10:57.641Z,87.40
2022-12-08T14:12:25.280Z,87.96
2022-12-08T14:13:46.076Z,87.70
2022-12-08T14:15:08.124Z,87.38
2022-12-08T14:16:36.095Z,87.47
2022-12-08T14:17:57.950Z,87.35
2022-12-08T14:19:28.004Z,87.01
2022-12-08T14:21:22.402Z,86.69
2022-12-08T14:22:44.417Z,86.59
2022-12-08T14:24:05.874Z,86.52
2022-12-08T14:25:30.182Z,86.76
2022-12-08T14:26:54.224Z,86.76
2022-12-08T14:28:15.105Z,86.92
2022-12-08T14:30:09.945Z,86.22
2022-12-08T14:31:31.171Z,86.03
2022-12-08T14:32:58.795Z,85.73
2022-12-08T14:34:19.623Z,85.71
2022-12-08T14:35:40.836Z,86.00
2022-12-08T14:37:02.030Z,85.52
2022-12-08T14:38:25.850Z,86.28
2022-12-08T14:39:47.329Z,85.94
2022-12-08T14:41:11.974Z,86.14
2022-12-08T14:42:44.126Z,86.59
2022-12-08T14:44:23.325Z,86.45
2022-12-08T14:45:44.220Z,86.31
2022-12-08T14:47:08.453Z,86.63
2022-12-08T14:48:38.807Z,86.15
2022-12-08T14:50:01.141Z,86.68
2022-12-08T14:51:22.081Z,86.47
2022-12-08T14:52:44.846Z,86.20
2022-12-08T14:54:09.933Z,85.96
2022-12-08T14:55:36.457Z,85.82
2022-12-08T14:56:58.241Z,86.02
2022-12-08T14:58:29.515Z,85.78
2022-12-08T14:59:50.809Z,86.52
2022-12-08T15:01:17.095Z,85.91
2022-12-08T15:02:46.330Z,85.81
2022-12-08T15:04:14.027Z,85.67
2022-12-08T15:05:35.196Z,86.00
2022-12-08T15:07:01.140Z,85.86
2022-12-08T15:08:22.693Z,85.64
2022-12-08T15:09:47.263Z,85.78
2022-12-08T15:11:24.770Z,85.73
2022-12-08T15:13:08.861Z,85.48
2022-12-08T15:14:33.593Z,85.53
2022-12-08T15:15:57.782Z,85.56
2022-12-08T15:17:34.468Z,85.54
2022-12-08T15:19:05.937Z,85.27
2022-12-08T15:20:31.665Z,85.38
2022-12-08T15:21:57.075Z,84.95
2022-12-08T15:23:27.445Z,85.35
2022-12-08T15:24:48.896Z,84.93
2022-12-08T15:26:21.924Z,85.18
2022-12-08T15:27:50.275Z,85.91
2022-12-08T15:29:20.898Z,85.52
2022-12-08T15:30:42.169Z,85.49
2022-12-08T15:32:09.720Z,85.85
2022-12-08T15:33:30.699Z,85.45
2022-12-08T15:34:52.185Z,85.40
2022-12-08T15:36:13.740Z,85.67
2022-12-08T15:37:34.713Z,85.28
2022-12-08T15:38:55.675Z,85.27
2022-12-08T15:40:22.907Z,85.13
2022-12-08T15:41:43.860Z,85.29
2022-12-08T15:43:04.783Z,84.29
2022-12-08T15:44:26.377Z,84.70
2022-12-08T15:45:58.509Z,85.17
2022-12-08T15:47:23.864Z,84.62
2022-12-08T15:48:45.166Z,85.19
2022-12-08T15:50:07.558Z,84.39
2022-12-08T15:51:30.991Z,85.01
2022-12-08T15:52:52.181Z,84.89
2022-12-08T15:54:13.575Z,85.25
2022-12-08T15:55:38.744Z,84.70
2022-12-08T15:57:18.983Z,84.80
2022-12-08T15:58:57.927Z,84.26
2022-12-08T16:00:50.537Z,84.22
2022-12-08T16:02:02.917Z,83.23
2022-12-08T16:05:40.970Z,82.55
2022-12-08T16:08:51.813Z,82.03
2022-12-08T16:10:19.115Z,81.97
2022-12-08T16:12:08.306Z,81.87
2022-12-08T16:13:57.653Z,82.05
2022-12-08T16:17:02.381Z,82.74
2022-12-08T16:18:28.016Z,82.67
2022-12-08T16:19:49.499Z,82.28
2022-12-08T16:21:34.285Z,82.85
2022-12-08T16:22:59.657Z,82.72
2022-12-08T16:24:34.443Z,82.85
2022-12-08T16:26:20.162Z,83.00
2022-12-08T16:29:21.147Z,82.98
2022-12-08T16:30:42.162Z,82.77
2022-12-08T16:32:03.041Z,83.28
2022-12-08T16:33:24.511Z,83.64
2022-12-08T16:34:45.474Z,82.76
2022-12-08T16:36:06.974Z,82.81
2022-12-08T16:37:28.821Z,82.90
2022-12-08T16:38:50.244Z,83.13
2022-12-08T16:40:12.584Z,83.25
2022-12-08T16:41:52.193Z,83.10
2022-12-08T16:43:13.081Z,83.42
2022-12-08T16:44:34.093Z,83.18
2022-12-08T16:45:55.268Z,83.51
2022-12-08T16:47:16.487Z,83.29
2022-12-08T16:48:37.965Z,83.51
2022-12-08T16:49:59.474Z,83.35
2022-12-08T16:51:26.438Z,83.74
2022-12-08T16:52:49.044Z,83.72
2022-12-08T16:54:09.787Z,84.21
2022-12-08T16:55:31.364Z,83.93
2022-12-08T16:56:52.622Z,83.89
2022-12-08T16:58:14.592Z,84.29
2022-12-08T16:59:35.488Z,83.83
2022-12-08T17:01:02.354Z,83.95
2022-12-08T17:02:23.812Z,84.04
2022-12-08T17:04:01.414Z,84.10
2022-12-08T17:05:27.328Z,84.21
2022-12-08T17:06:50.960Z,84.10
2022-12-08T17:08:13.327Z,83.70
2022-12-08T17:09:34.517Z,84.04
2022-12-08T17:11:07.438Z,84.22
2022-12-08T17:12:28.962Z,83.72
2022-12-08T17:13:49.855Z,84.07
2022-12-08T17:15:15.082Z,83.96
2022-12-08T17:16:36.059Z,83.88
2022-12-08T17:17:57.229Z,83.84
2022-12-08T17:19:19.009Z,82.92
2022-12-08T17:20:40.448Z,82.64
2022-12-08T17:22:02.328Z,83.21
2022-12-08T17:23:26.430Z,82.55
2022-12-08T17:24:47.650Z,82.47
2022-12-08T17:26:09.852Z,82.23
2022-12-08T17:27:31.246Z,82.41
2022-12-08T17:29:00.443Z,82.67
2022-12-08T17:30:21.942Z,82.16
2022-12-08T17:31:42.994Z,82.31
2022-12-08T17:33:04.516Z,82.36
2022-12-08T17:34:31.595Z,82.80
2022-12-08T17:35:54.351Z,82.90
2022-12-08T17:37:16.082Z,83.31
2022-12-08T17:38:37.956Z,83.10
2022-12-08T17:39:59.268Z,83.16
2022-12-08T17:41:20.045Z,83.16
2022-12-08T17:42:42.457Z,82.52
2022-12-08T17:44:03.536Z,82.50
2022-12-08T17:45:24.535Z,82.94
2022-12-08T17:46:52.103Z,82.34
2022-12-08T17:48:15.029Z,82.43
2022-12-08T17:49:38.898Z,82.79
2022-12-08T17:51:00.250Z,82.98
2022-12-08T17:52:21.030Z,83.07
2022-12-08T17:53:42.677Z,82.51
2022-12-08T17:55:04.194Z,83.53
2022-12-08T17:56:25.078Z,83.10
2022-12-08T17:57:46.127Z,82.90
2022-12-08T17:59:07.423Z,82.26
2022-12-08T18:00:29.079Z,82.97
2022-12-08T18:01:52.555Z,83.05
2022-12-08T18:03:13.920Z,82.28
2022-12-08T18:04:34.819Z,82.04
2022-12-08T18:05:56.109Z,82.39
2022-12-08T18:07:17.462Z,81.72
2022-12-08T18:08:39.715Z,81.64
2022-12-08T18:10:00.882Z,82.67
2022-12-08T18:11:22.079Z,82.12
2022-12-08T18:12:43.281Z,82.61
2022-12-08T18:14:10.195Z,82.71
2022-12-08T18:15:37.474Z,82.42
2022-12-08T18:17:00.363Z,82.51
2022-12-08T18:18:22.735Z,82.37
2022-12-08T18:19:44.151Z,82.36
2022-12-08T18:21:06.020Z,82.15
2022-12-08T18:22:27.219Z,82.72
2022-12-08T18:23:48.099Z,81.94
2022-12-08T18:25:10.889Z,82.12
2022-12-08T18:26:32.421Z,82.70
2022-12-08T18:27:53.313Z,82.20
2022-12-08T18:29:14.274Z,82.64
2022-12-08T18:30:35.152Z,82.43
2022-12-08T18:31:56.469Z,82.80
2022-12-08T18:33:17.800Z,82.78
2022-12-08T18:34:38.933Z,82.45
2022-12-08T18:35:59.969Z,82.29
2022-12-08T18:37:21.021Z,82.28
2022-12-08T18:38:43.154Z,82.15
2022-12-08T18:40:04.943Z,82.11
2022-12-08T18:41:30.992Z,82.05